Time;durP1;ratioP1;P1;durP2;ratioP2;P2;SDS_P1;SDS_P2;PMS_P1;PMS_P2;Temp;Humidity;BMP_temperature;BMP_pressure;BME280_temperature;BME280_humidity;BME280_pressure;Samples;Min_cycle;Max_cycle;Signal;HPM_P1;HPM_P2
2022/11/14 00:00:59;;;;;;;13.70;12.30;;;4.00;99.90;;;;;;4980716;28;20184;-63
2022/11/14 00:03:24;;;;;;;16.60;11.50;;;4.00;99.90;;;;;;4979540;28;20208;-63
2022/11/14 00:05:50;;;;;;;13.03;10.63;;;3.90;99.90;;;;;;4983044;28;20208;-63
2022/11/14 00:08:18;;;;;;;15.57;12.27;;;3.90;99.90;;;;;;4979738;28;20187;-63
2022/11/14 00:10:45;;;;;;;12.67;10.60;;;3.90;99.90;;;;;;4980218;28;20254;-63
2022/11/14 00:13:11;;;;;;;15.20;11.13;;;3.90;99.90;;;;;;4982148;28;20514;-62
2022/11/14 00:15:36;;;;;;;16.53;12.60;;;3.90;99.90;;;;;;4976830;28;20530;-63
2022/11/14 00:18:02;;;;;;;16.47;10.67;;;3.90;99.90;;;;;;4976012;28;20540;-63
2022/11/14 00:20:27;;;;;;;14.03;11.40;;;3.90;99.90;;;;;;4985108;28;20211;-61
2022/11/14 00:22:53;;;;;;;15.17;11.57;;;3.90;99.90;;;;;;4982503;28;20246;-63
2022/11/14 00:25:18;;;;;;;16.23;13.20;;;3.80;99.90;;;;;;4978589;28;20182;-61
2022/11/14 00:27:44;;;;;;;15.80;12.07;;;3.80;99.90;;;;;;4971441;28;20303;-63
2022/11/14 00:30:10;;;;;;;12.83;10.47;;;3.70;99.90;;;;;;4981038;28;20180;-63
2022/11/14 00:32:35;;;;;;;17.70;12.70;;;3.70;99.90;;;;;;4982962;28;20645;-63
2022/11/14 00:35:01;;;;;;;15.93;11.90;;;3.70;99.90;;;;;;4981695;28;20179;-62
2022/11/14 00:37:26;;;;;;;19.33;12.63;;;3.80;99.90;;;;;;4979398;28;20701;-63
2022/11/14 00:39:52;;;;;;;16.33;12.67;;;3.70;99.90;;;;;;4983639;28;20191;-63
2022/11/14 00:42:17;;;;;;;17.70;12.57;;;3.80;99.90;;;;;;4990273;28;20180;-62
2022/11/14 00:44:43;;;;;;;12.93;11.37;;;3.70;99.90;;;;;;4975825;28;20222;-63
2022/11/14 00:47:08;;;;;;;15.87;11.70;;;3.70;99.90;;;;;;4981392;28;20212;-62
2022/11/14 00:49:34;;;;;;;18.67;13.13;;;3.70;99.90;;;;;;4979284;28;20271;-63
2022/11/14 00:52:00;;;;;;;14.83;12.27;;;3.70;99.90;;;;;;4983655;28;20259;-63
2022/11/14 00:54:25;;;;;;;16.10;11.30;;;3.70;99.90;;;;;;4983921;28;20881;-63
2022/11/14 00:56:51;;;;;;;15.27;11.90;;;3.60;99.90;;;;;;4974089;28;20263;-63
2022/11/14 00:59:17;;;;;;;15.50;12.53;;;3.60;99.90;;;;;;4980215;28;20260;-62
2022/11/14 01:01:42;;;;;;;16.93;13.10;;;3.60;99.90;;;;;;4975315;28;20184;-63
2022/11/14 01:04:08;;;;;;;15.27;11.27;;;3.50;99.90;;;;;;4985146;28;20254;-63
2022/11/14 01:06:33;;;;;;;17.07;13.33;;;3.60;99.90;;;;;;4981836;28;20200;-63
2022/11/14 01:08:59;;;;;;;14.97;12.67;;;3.60;99.90;;;;;;4980808;28;20210;-65
2022/11/14 01:11:24;;;;;;;15.80;11.93;;;3.60;99.90;;;;;;4980265;28;20196;-65
2022/11/14 01:13:50;;;;;;;15.73;12.43;;;3.60;99.90;;;;;;4988251;28;20188;-63
2022/11/14 01:16:16;;;;;;;18.30;12.20;;;3.60;99.90;;;;;;4982656;28;20210;-64
2022/11/14 01:18:42;;;;;;;16.83;12.57;;;3.50;99.90;;;;;;4976456;28;20188;-64
2022/11/14 01:21:10;;;;;;;18.27;13.10;;;3.50;99.90;;;;;;4972342;28;20184;-64
2022/11/14 01:23:35;;;;;;;16.93;12.70;;;3.50;99.90;;;;;;4981865;28;20226;-63
2022/11/14 01:26:07;;;;;;;19.97;13.33;;;3.50;99.90;;;;;;4986672;28;20987;-63
2022/11/14 01:28:33;;;;;;;13.50;11.03;;;3.60;99.90;;;;;;4984765;28;20175;-65
2022/11/14 01:31:22;;;;;;;15.20;12.37;;;3.70;99.90;;;;;;4980528;28;20493;-65
2022/11/14 01:33:49;;;;;;;13.63;11.40;;;3.90;99.90;;;;;;4988662;28;20276;-65
2022/11/14 01:36:15;;;;;;;18.00;11.67;;;3.90;99.90;;;;;;4985226;28;20458;-65
2022/11/14 01:38:40;;;;;;;13.90;12.10;;;3.90;99.90;;;;;;4978664;28;20522;-64
2022/11/14 01:41:06;;;;;;;14.47;11.70;;;4.00;99.90;;;;;;4979334;28;20275;-65
2022/11/14 01:43:39;;;;;;;15.50;11.70;;;4.10;99.90;;;;;;4983977;28;20314;-64
2022/11/14 01:46:21;;;;;;;15.43;13.30;;;4.20;99.90;;;;;;4982935;28;20207;-64
2022/11/14 01:49:04;;;;;;;15.23;13.20;;;4.30;99.90;;;;;;4983754;28;20435;-64
2022/11/14 01:51:47;;;;;;;12.73;11.43;;;4.40;99.90;;;;;;4988021;28;20434;-63
2022/11/14 01:54:25;;;;;;;12.10;10.00;;;4.60;99.90;;;;;;4982263;28;20434;-65
2022/11/14 01:56:56;;;;;;;15.83;13.17;;;4.60;99.90;;;;;;4985134;28;20524;-63
2022/11/14 01:59:26;;;;;;;16.50;11.97;;;4.60;99.90;;;;;;4985143;28;20434;-62
2022/11/14 02:01:53;;;;;;;14.80;11.50;;;4.60;99.90;;;;;;4982633;28;20432;-65
2022/11/14 02:04:31;;;;;;;13.13;11.60;;;4.70;99.90;;;;;;4981267;28;20478;-64
2022/11/14 02:07:00;;;;;;;13.03;10.80;;;4.70;99.90;;;;;;4973127;28;20459;-63
2022/11/14 02:09:28;;;;;;;13.50;10.47;;;4.60;99.90;;;;;;4983124;28;20474;-64
2022/11/14 02:11:57;;;;;;;13.90;11.47;;;4.50;99.90;;;;;;4990133;28;20849;-65
2022/11/14 02:14:23;;;;;;;13.63;11.07;;;4.50;99.90;;;;;;4982880;28;20466;-63
2022/11/14 02:16:49;;;;;;;16.57;12.13;;;4.60;99.90;;;;;;4986061;28;20460;-64
2022/11/14 02:19:15;;;;;;;13.80;10.50;;;4.60;99.90;;;;;;4981642;28;20222;-61
2022/11/14 02:21:41;;;;;;;16.30;11.40;;;4.60;99.90;;;;;;4977547;28;20448;-64
2022/11/14 02:24:11;;;;;;;18.73;13.30;;;4.60;99.90;;;;;;4985957;28;20604;-63
2022/11/14 02:26:38;;;;;;;19.20;12.97;;;4.60;99.90;;;;;;4982709;28;20608;-63
2022/11/14 02:29:06;;;;;;;19.63;13.00;;;4.30;99.90;;;;;;4990074;28;20799;-64
2022/11/14 02:31:31;;;;;;;23.93;15.83;;;4.30;99.90;;;;;;4986487;28;20447;-64
2022/11/14 02:33:57;;;;;;;18.53;14.40;;;4.20;99.90;;;;;;4989111;28;20446;-63
2022/11/14 02:36:22;;;;;;;30.30;15.27;;;4.10;99.90;;;;;;4982535;28;20225;-63
2022/11/14 02:38:48;;;;;;;33.87;16.03;;;4.10;99.90;;;;;;4983761;28;20215;-63
2022/11/14 02:41:13;;;;;;;35.93;16.67;;;4.00;99.90;;;;;;4978493;28;20195;-63
2022/11/14 02:43:39;;;;;;;79.47;21.60;;;4.00;99.90;;;;;;4981545;28;20612;-63
2022/11/14 02:46:04;;;;;;;38.77;16.00;;;3.90;99.90;;;;;;4987492;28;20208;-63
2022/11/14 02:48:30;;;;;;;48.20;17.33;;;4.00;99.90;;;;;;4988034;28;20188;-61
2022/11/14 02:50:55;;;;;;;50.33;16.47;;;3.90;99.90;;;;;;4981539;28;20187;-63
2022/11/14 02:53:21;;;;;;;50.73;14.93;;;3.90;99.90;;;;;;4981531;28;20187;-63
2022/11/14 02:55:46;;;;;;;40.30;15.50;;;3.90;99.90;;;;;;4978920;28;20218;-62
2022/11/14 02:58:12;;;;;;;29.27;14.50;;;3.80;99.90;;;;;;4979785;28;20251;-61
2022/11/14 03:00:37;;;;;;;29.60;15.40;;;3.80;99.90;;;;;;4976029;28;20590;-63
2022/11/14 03:03:03;;;;;;;30.17;15.70;;;3.80;99.90;;;;;;4987293;28;20239;-62
2022/11/14 03:05:29;;;;;;;39.07;14.93;;;3.70;99.90;;;;;;4980103;28;20623;-63
2022/11/14 03:07:55;;;;;;;58.93;16.67;;;3.70;99.90;;;;;;4979630;28;20180;-63
2022/11/14 03:10:22;;;;;;;30.93;15.13;;;3.70;99.90;;;;;;4972045;28;20223;-63
2022/11/14 03:12:51;;;;;;;25.60;15.80;;;3.60;99.90;;;;;;4980638;28;20530;-63
2022/11/14 03:15:17;;;;;;;28.30;14.23;;;3.60;99.90;;;;;;4982536;28;20540;-64
2022/11/14 03:17:42;;;;;;;30.40;13.50;;;3.70;99.90;;;;;;4978379;28;20458;-62
2022/11/14 03:20:08;;;;;;;25.13;14.00;;;3.70;99.90;;;;;;4969590;28;20207;-63
2022/11/14 03:22:34;;;;;;;20.47;15.00;;;3.80;99.90;;;;;;4981996;28;20196;-64
2022/11/14 03:24:59;;;;;;;24.57;15.03;;;3.90;99.90;;;;;;4982936;28;20470;-62
2022/11/14 03:27:25;;;;;;;20.60;13.13;;;3.90;99.90;;;;;;4983940;28;20215;-63
2022/11/14 03:29:51;;;;;;;23.40;14.23;;;3.90;99.90;;;;;;4973672;28;20182;-64
2022/11/14 03:32:17;;;;;;;20.17;13.73;;;3.90;99.90;;;;;;4981040;28;20186;-64
2022/11/14 03:34:42;;;;;;;19.90;14.43;;;3.90;99.90;;;;;;4982131;28;20443;-64
2022/11/14 03:37:08;;;;;;;17.23;13.00;;;3.90;99.90;;;;;;4979429;28;20196;-63
2022/11/14 03:39:34;;;;;;;13.70;10.77;;;3.80;99.90;;;;;;4983898;28;20203;-62
2022/11/14 03:41:59;;;;;;;14.80;12.37;;;3.80;99.90;;;;;;4977955;28;20813;-64
2022/11/14 03:44:25;;;;;;;13.90;10.53;;;3.80;99.90;;;;;;4978610;28;20235;-63
2022/11/14 03:46:51;;;;;;;15.40;11.13;;;3.70;99.90;;;;;;4982377;28;20199;-63
2022/11/14 03:49:17;;;;;;;16.43;12.50;;;3.70;99.90;;;;;;4983991;28;20207;-63
2022/11/14 03:51:43;;;;;;;13.37;10.83;;;3.70;99.90;;;;;;4975127;28;21064;-63
2022/11/14 03:54:08;;;;;;;16.93;10.93;;;3.70;99.90;;;;;;4973856;28;20276;-64
2022/11/14 03:56:34;;;;;;;15.10;12.37;;;3.70;99.90;;;;;;4981902;28;20211;-64
2022/11/14 03:58:59;;;;;;;12.43;11.13;;;3.70;99.90;;;;;;4986238;28;20190;-64
2022/11/14 04:01:25;;;;;;;15.27;10.70;;;3.60;99.90;;;;;;4984097;28;20210;-64
2022/11/14 04:03:52;;;;;;;10.60;9.40;;;3.60;99.90;;;;;;4980943;28;20207;-63
2022/11/14 04:06:17;;;;;;;12.10;9.80;;;3.60;99.90;;;;;;4979679;28;20468;-63
2022/11/14 04:08:43;;;;;;;12.17;9.67;;;3.50;99.90;;;;;;4977873;28;20184;-63
2022/11/14 04:11:08;;;;;;;15.90;10.97;;;3.50;99.90;;;;;;4980258;28;20183;-64
2022/11/14 04:13:34;;;;;;;12.77;9.70;;;3.50;99.90;;;;;;4977367;28;20212;-64
2022/11/14 04:15:59;;;;;;;13.27;10.53;;;3.50;99.90;;;;;;4984928;28;20748;-63
2022/11/14 04:18:26;;;;;;;13.47;10.67;;;3.40;99.90;;;;;;4982763;28;20695;-64
2022/11/14 04:20:52;;;;;;;12.13;9.87;;;3.40;99.90;;;;;;4979646;28;20207;-65
2022/11/14 04:23:18;;;;;;;12.23;9.67;;;3.40;99.90;;;;;;4985973;28;20458;-64
2022/11/14 04:25:44;;;;;;;18.10;11.93;;;3.40;99.90;;;;;;4974333;28;20444;-64
2022/11/14 04:28:10;;;;;;;14.23;10.50;;;3.40;99.90;;;;;;5000536;23;20483;-63
2022/11/14 04:30:36;;;;;;;13.20;10.43;;;3.40;99.90;;;;;;4974968;28;21008;-61
2022/11/14 04:33:01;;;;;;;14.23;10.80;;;3.40;99.90;;;;;;4986414;28;20513;-62
2022/11/14 04:35:27;;;;;;;15.17;11.70;;;3.40;99.90;;;;;;4978462;28;20185;-63
2022/11/14 04:37:52;;;;;;;13.30;11.30;;;3.40;99.90;;;;;;4976137;28;20187;-63
2022/11/14 04:40:18;;;;;;;13.60;10.57;;;3.40;99.90;;;;;;4974474;28;20650;-62
2022/11/14 04:42:44;;;;;;;13.13;10.20;;;3.40;99.90;;;;;;4982790;28;20188;-63
2022/11/14 04:45:10;;;;;;;14.60;10.83;;;3.40;99.90;;;;;;4975251;28;20199;-62
2022/11/14 04:47:35;;;;;;;12.83;11.53;;;3.40;99.90;;;;;;4975172;28;20189;-63
2022/11/14 04:50:01;;;;;;;14.40;11.00;;;3.50;99.90;;;;;;4977126;28;20446;-63
2022/11/14 04:52:27;;;;;;;15.47;12.03;;;3.50;99.90;;;;;;4977212;28;20572;-62
2022/11/14 04:54:53;;;;;;;12.13;10.60;;;3.50;99.90;;;;;;4973814;28;20516;-66
2022/11/14 04:57:18;;;;;;;13.00;10.00;;;3.50;99.90;;;;;;4979944;28;20231;-62
2022/11/14 04:59:44;;;;;;;14.90;11.33;;;3.50;99.90;;;;;;4979054;28;20634;-63
2022/11/14 05:02:09;;;;;;;11.80;10.57;;;3.50;99.90;;;;;;4978136;28;20653;-63
2022/11/14 05:04:35;;;;;;;12.03;10.47;;;3.50;99.90;;;;;;4984274;28;20238;-62
2022/11/14 05:07:00;;;;;;;11.60;9.50;;;3.50;99.90;;;;;;4983156;28;20283;-63
2022/11/14 05:09:26;;;;;;;16.50;12.00;;;3.60;99.90;;;;;;4986768;28;20186;-63
2022/11/14 05:11:51;;;;;;;15.90;11.27;;;3.50;99.90;;;;;;4981823;28;20642;-66
2022/11/14 05:14:17;;;;;;;12.63;10.90;;;3.50;99.90;;;;;;4977921;28;20190;-63
2022/11/14 05:16:42;;;;;;;12.80;9.57;;;3.50;99.90;;;;;;4978043;28;20208;-62
2022/11/14 05:19:08;;;;;;;11.90;9.77;;;3.50;99.90;;;;;;4977284;28;20192;-64
2022/11/14 05:21:34;;;;;;;11.60;10.40;;;3.50;99.90;;;;;;4978773;28;20188;-61
2022/11/14 05:23:59;;;;;;;10.53;9.27;;;3.50;99.90;;;;;;4975419;28;20637;-63
2022/11/14 05:26:25;;;;;;;11.87;10.53;;;3.50;99.90;;;;;;4983856;28;20211;-63
2022/11/14 05:28:50;;;;;;;11.23;9.10;;;3.50;99.90;;;;;;4985624;28;20573;-62
2022/11/14 05:31:16;;;;;;;12.80;10.67;;;3.40;99.90;;;;;;4976355;28;20180;-63
2022/11/14 05:33:42;;;;;;;14.47;10.37;;;3.40;99.90;;;;;;4982479;28;20187;-62
2022/11/14 05:36:11;;;;;;;16.20;11.00;;;3.40;99.90;;;;;;4979084;28;20443;-63
2022/11/14 05:38:37;;;;;;;10.80;8.97;;;3.40;99.90;;;;;;4984799;28;20897;-65
2022/11/14 05:41:11;;;;;;;11.63;9.90;;;3.40;99.90;;;;;;4978085;28;20474;-64
2022/11/14 05:43:36;;;;;;;12.60;9.57;;;3.40;99.90;;;;;;4975499;28;20243;-64
2022/11/14 05:46:04;;;;;;;13.70;9.90;;;3.50;99.90;;;;;;4983941;28;20972;-65
2022/11/14 05:48:30;;;;;;;12.57;9.80;;;3.50;99.90;;;;;;4978882;28;20184;-64
2022/11/14 05:50:58;;;;;;;13.90;9.67;;;3.50;99.90;;;;;;4973557;28;21041;-65
2022/11/14 05:53:25;;;;;;;12.87;11.00;;;3.60;99.90;;;;;;4980779;28;20180;-64
2022/11/14 05:55:50;;;;;;;12.87;9.87;;;3.50;99.90;;;;;;4985140;28;20440;-64
2022/11/14 05:58:16;;;;;;;10.57;8.80;;;3.60;99.90;;;;;;4986386;28;20828;-64
2022/11/14 06:00:42;;;;;;;13.67;10.47;;;3.60;99.90;;;;;;4984640;28;20184;-64
2022/11/14 06:03:07;;;;;;;11.40;9.60;;;3.70;99.90;;;;;;4974730;28;20620;-65
2022/11/14 06:05:34;;;;;;;9.83;8.80;;;3.80;99.90;;;;;;4982272;28;20180;-64
2022/11/14 06:08:00;;;;;;;11.13;9.97;;;3.90;99.90;;;;;;4985533;28;20245;-64
2022/11/14 06:10:26;;;;;;;10.80;8.90;;;3.90;99.90;;;;;;4984717;28;20913;-64
2022/11/14 06:12:52;;;;;;;12.10;10.20;;;4.00;99.90;;;;;;4982573;28;20521;-64
2022/11/14 06:15:18;;;;;;;11.60;9.40;;;4.00;99.90;;;;;;4990874;28;20188;-64
2022/11/14 06:17:43;;;;;;;11.00;9.20;;;4.00;99.90;;;;;;4984196;28;20239;-64
2022/11/14 06:20:09;;;;;;;15.73;9.90;;;4.00;99.90;;;;;;4982488;28;20645;-65
2022/11/14 06:22:35;;;;;;;11.07;9.10;;;4.00;99.90;;;;;;4986140;28;20190;-62
2022/11/14 06:25:01;;;;;;;12.20;9.70;;;4.00;99.90;;;;;;4985300;28;21080;-62
2022/11/14 06:27:27;;;;;;;10.77;9.10;;;4.00;99.90;;;;;;4985308;28;20274;-62
2022/11/14 06:29:52;;;;;;;17.03;10.07;;;4.10;99.90;;;;;;4978692;28;20435;-62
2022/11/14 06:32:18;;;;;;;13.43;11.03;;;4.20;99.90;;;;;;4981985;28;20192;-62
2022/11/14 06:34:43;;;;;;;13.63;9.47;;;4.20;99.90;;;;;;4982236;28;20241;-63
2022/11/14 06:37:09;;;;;;;11.90;9.23;;;4.20;99.90;;;;;;4972051;28;20208;-62
2022/11/14 06:39:34;;;;;;;9.40;8.40;;;4.20;99.90;;;;;;4975941;28;20184;-61
2022/11/14 06:42:00;;;;;;;13.07;8.93;;;4.30;99.90;;;;;;4984024;28;20210;-62
2022/11/14 06:44:25;;;;;;;13.23;10.17;;;4.30;99.90;;;;;;4983659;28;20234;-61
2022/11/14 06:46:51;;;;;;;13.50;9.87;;;4.40;99.90;;;;;;4983229;28;20298;-63
2022/11/14 06:49:16;;;;;;;11.73;9.37;;;4.50;99.90;;;;;;4979356;28;20184;-62
2022/11/14 06:51:42;;;;;;;12.40;8.00;;;4.60;99.90;;;;;;4983502;28;20207;-62
2022/11/14 06:54:10;;;;;;;11.40;9.27;;;4.70;99.90;;;;;;4983276;28;20226;-63
2022/11/14 06:56:36;;;;;;;11.20;9.00;;;4.60;99.90;;;;;;4979260;28;20200;-61
2022/11/14 06:59:02;;;;;;;10.93;9.83;;;4.70;99.90;;;;;;4974499;28;20509;-62
2022/11/14 07:01:27;;;;;;;11.40;8.93;;;4.70;99.90;;;;;;4975110;28;20176;-61
2022/11/14 07:03:53;;;;;;;12.10;9.70;;;4.80;99.90;;;;;;4979640;28;21057;-61
2022/11/14 07:06:22;;;;;;;11.07;8.60;;;4.80;99.90;;;;;;4980251;28;20196;-60
2022/11/14 07:08:47;;;;;;;11.17;8.90;;;5.00;99.90;;;;;;4983267;28;20223;-63
2022/11/14 07:11:21;;;;;;;12.30;9.20;;;5.10;99.90;;;;;;4978323;28;20887;-64
2022/11/14 07:13:48;;;;;;;10.80;8.30;;;5.30;99.90;;;;;;4977742;28;20267;-63
2022/11/14 07:16:14;;;;;;;11.37;8.17;;;5.40;99.90;;;;;;4974958;28;20455;-64
2022/11/14 07:18:39;;;;;;;14.33;8.70;;;5.40;99.90;;;;;;4978798;28;20444;-63
2022/11/14 07:21:05;;;;;;;10.90;8.70;;;5.40;99.90;;;;;;4985021;28;20277;-63
2022/11/14 07:23:32;;;;;;;11.30;9.87;;;5.40;99.90;;;;;;4982066;28;20270;-62
2022/11/14 07:26:06;;;;;;;10.53;8.83;;;5.40;99.90;;;;;;4975591;28;20176;-63
2022/11/14 07:28:33;;;;;;;9.83;8.03;;;5.30;99.90;;;;;;4971642;28;20439;-63
2022/11/14 07:31:01;;;;;;;11.23;8.87;;;5.20;99.90;;;;;;4983078;28;20441;-62
2022/11/14 07:33:27;;;;;;;11.27;9.00;;;5.20;99.90;;;;;;4977292;28;20466;-62
2022/11/14 07:35:52;;;;;;;12.50;8.80;;;5.10;99.90;;;;;;4978511;28;20497;-63
2022/11/14 07:38:18;;;;;;;11.03;8.50;;;5.00;99.90;;;;;;4979109;28;20196;-63
2022/11/14 07:40:55;;;;;;;16.53;11.23;;;4.90;99.90;;;;;;4977881;28;20666;-63
2022/11/14 07:43:20;;;;;;;13.90;9.73;;;4.80;99.90;;;;;;4946738;28;20204;-66
2022/11/14 07:45:46;;;;;;;11.47;10.20;;;4.90;99.90;;;;;;4954226;28;20439;-65
2022/11/14 07:48:12;;;;;;;12.00;10.03;;;5.00;99.90;;;;;;4981131;28;20211;-63
2022/11/14 07:50:37;;;;;;;12.90;8.87;;;5.10;99.90;;;;;;4974919;28;20204;-64
2022/11/14 07:53:03;;;;;;;12.00;9.97;;;5.20;99.90;;;;;;4966900;28;20239;-62
2022/11/14 07:55:28;;;;;;;10.27;9.07;;;5.40;99.90;;;;;;4969508;28;20177;-65
2022/11/14 07:57:57;;;;;;;14.27;10.80;;;5.40;99.90;;;;;;4970836;28;20195;-67
2022/11/14 08:00:23;;;;;;;15.43;8.50;;;5.50;99.90;;;;;;4973089;28;20185;-65
2022/11/14 08:02:48;;;;;;;11.27;9.00;;;5.60;99.90;;;;;;4962993;28;20447;-67
2022/11/14 08:05:14;;;;;;;14.10;9.77;;;5.70;99.90;;;;;;4973108;28;20204;-67
2022/11/14 08:07:39;;;;;;;13.43;11.00;;;5.80;99.90;;;;;;4974778;28;20535;-66
2022/11/14 08:10:06;;;;;;;10.83;8.50;;;5.90;99.90;;;;;;4980240;28;20176;-67
2022/11/14 08:12:31;;;;;;;11.07;9.93;;;6.00;99.90;;;;;;4970583;28;20180;-66
2022/11/14 08:14:57;;;;;;;11.90;8.23;;;6.20;99.90;;;;;;4976077;28;20440;-66
2022/11/14 08:17:23;;;;;;;10.13;8.07;;;6.30;99.90;;;;;;4970138;28;20728;-64
2022/11/14 08:19:48;;;;;;;11.03;7.93;;;6.30;99.90;;;;;;4978179;28;20649;-64
2022/11/14 08:22:14;;;;;;;11.00;8.20;;;6.40;99.90;;;;;;4966390;28;20554;-65
2022/11/14 08:24:39;;;;;;;8.70;7.10;;;6.50;99.90;;;;;;4975517;28;20243;-67
2022/11/14 08:27:05;;;;;;;10.93;8.37;;;6.50;99.90;;;;;;4972584;28;20215;-65
2022/11/14 08:29:31;;;;;;;11.80;9.23;;;6.50;99.90;;;;;;4979253;28;20183;-66
2022/11/14 08:31:56;;;;;;;7.93;5.73;;;6.60;99.90;;;;;;4961865;28;20203;-70
2022/11/14 08:34:22;;;;;;;7.33;6.57;;;6.80;99.90;;;;;;4971779;28;20272;-67
2022/11/14 08:36:48;;;;;;;8.70;4.93;;;6.80;99.90;;;;;;4972177;28;20254;-67
2022/11/14 08:39:13;;;;;;;8.33;6.30;;;6.80;99.90;;;;;;4976287;28;20450;-67
2022/11/14 08:41:39;;;;;;;9.10;6.17;;;7.00;99.90;;;;;;4987351;28;20186;-67
2022/11/14 08:44:05;;;;;;;5.70;4.20;;;7.10;99.90;;;;;;4973857;28;20203;-67
2022/11/14 08:46:30;;;;;;;7.83;5.10;;;7.20;99.90;;;;;;4973834;28;20226;-67
2022/11/14 08:48:56;;;;;;;4.87;4.10;;;7.20;99.90;;;;;;4984036;28;20194;-68
2022/11/14 08:51:21;;;;;;;5.20;4.57;;;7.30;99.90;;;;;;4981727;28;20177;-67
2022/11/14 08:53:47;;;;;;;5.80;5.20;;;7.20;99.90;;;;;;4975062;28;20177;-67
2022/11/14 08:56:12;;;;;;;5.07;4.57;;;7.30;99.90;;;;;;4977855;28;20192;-67
2022/11/14 08:58:38;;;;;;;5.07;4.57;;;7.20;99.90;;;;;;4974783;28;20556;-67
2022/11/14 09:01:05;;;;;;;5.63;5.03;;;7.20;99.90;;;;;;4973647;28;20184;-67
2022/11/14 09:03:32;;;;;;;4.83;4.33;;;7.30;99.90;;;;;;4970228;28;20212;-67
2022/11/14 09:05:58;;;;;;;6.63;5.70;;;7.30;99.90;;;;;;4980781;28;20438;-67
2022/11/14 09:08:24;;;;;;;4.80;4.30;;;7.30;99.90;;;;;;4985805;28;20537;-67
2022/11/14 09:10:50;;;;;;;5.13;4.30;;;7.40;99.90;;;;;;4971323;28;20427;-68
2022/11/14 09:13:15;;;;;;;5.50;4.00;;;7.40;99.90;;;;;;4971689;28;20431;-67
2022/11/14 09:15:43;;;;;;;5.73;3.93;;;7.60;99.90;;;;;;4981887;28;20436;-67
2022/11/14 09:18:10;;;;;;;5.53;4.90;;;7.60;99.90;;;;;;4976005;28;20208;-68
2022/11/14 09:20:35;;;;;;;4.23;3.63;;;7.60;99.90;;;;;;4981795;28;20474;-67
2022/11/14 09:23:01;;;;;;;4.80;4.40;;;7.70;99.90;;;;;;4964073;28;20440;-67
2022/11/14 09:25:28;;;;;;;4.43;4.03;;;7.70;99.90;;;;;;4971982;28;20300;-68
2022/11/14 09:27:54;;;;;;;4.30;3.50;;;7.70;99.90;;;;;;4981142;28;20528;-68
2022/11/14 09:30:24;;;;;;;4.60;4.10;;;7.70;99.90;;;;;;4979206;28;20438;-66
2022/11/14 09:32:50;;;;;;;4.23;3.83;;;7.80;99.90;;;;;;4971430;28;20443;-68
2022/11/14 09:35:15;;;;;;;4.60;3.70;;;7.80;99.90;;;;;;4979954;28;20443;-67
2022/11/14 09:37:41;;;;;;;4.73;4.13;;;7.90;99.90;;;;;;4981021;28;20633;-67
2022/11/14 09:40:07;;;;;;;4.00;3.43;;;7.90;99.90;;;;;;4974756;28;20188;-67
2022/11/14 09:42:53;;;;;;;3.57;3.27;;;7.90;99.90;;;;;;4969496;28;20283;-68
2022/11/14 09:45:19;;;;;;;3.30;3.10;;;8.00;99.90;;;;;;4972772;28;20436;-67
2022/11/14 09:47:46;;;;;;;7.03;3.60;;;8.10;99.90;;;;;;4970190;28;20962;-67
2022/11/14 09:50:14;;;;;;;4.80;3.57;;;8.10;99.90;;;;;;4972146;28;20212;-67
2022/11/14 09:52:46;;;;;;;4.07;3.67;;;8.20;99.90;;;;;;4976311;28;20577;-67
2022/11/14 09:55:17;;;;;;;5.57;3.83;;;8.30;99.90;;;;;;4984079;28;20513;-67
2022/11/14 09:57:44;;;;;;;4.40;3.57;;;8.30;99.90;;;;;;4982901;28;20795;-68
2022/11/14 10:00:19;;;;;;;6.43;5.00;;;8.40;99.90;;;;;;4974820;28;20443;-66
2022/11/14 10:03:00;;;;;;;7.90;4.13;;;8.50;99.90;;;;;;4971951;28;20438;-67
2022/11/14 10:05:29;;;;;;;5.43;4.00;;;8.60;99.90;;;;;;4974731;28;20435;-67
2022/11/14 10:07:57;;;;;;;5.13;3.53;;;8.70;99.90;;;;;;4976212;28;21143;-66
2022/11/14 10:10:45;;;;;;;4.60;4.07;;;8.80;99.90;;;;;;4986916;28;20434;-67
2022/11/14 10:13:29;;;;;;;4.27;3.73;;;9.00;99.90;;;;;;4965249;28;20825;-67
2022/11/14 10:16:09;;;;;;;4.00;3.40;;;9.30;99.90;;;;;;4983098;28;20890;-67
2022/11/14 10:18:50;;;;;;;5.70;4.30;;;9.90;99.90;;;;;;4976492;28;20817;-66
2022/11/14 10:21:24;;;;;;;3.43;3.03;;;10.50;99.90;;;;;;4980540;28;20426;-66
2022/11/14 10:24:18;;;;;;;4.60;3.03;;;11.40;99.90;;;;;;4966094;28;20808;-67
2022/11/14 10:26:59;;;;;;;2.80;2.60;;;12.00;99.90;;;;;;4981672;28;20839;-65
2022/11/14 10:29:43;;;;;;;4.10;3.80;;;11.60;99.90;;;;;;4970921;28;20476;-67
2022/11/14 10:32:33;;;;;;;4.30;3.73;;;11.10;99.90;;;;;;4973924;28;20466;-65
2022/11/14 10:35:16;;;;;;;3.57;3.23;;;10.60;99.90;;;;;;4979754;28;20431;-65
2022/11/14 10:37:50;;;;;;;3.70;3.40;;;10.30;99.90;;;;;;4974569;28;20546;-65
2022/11/14 10:40:32;;;;;;;2.97;2.77;;;10.00;99.90;;;;;;4971658;28;20443;-65
2022/11/14 10:43:05;;;;;;;5.20;3.17;;;9.90;99.90;;;;;;4970729;28;20445;-66
2022/11/14 10:45:42;;;;;;;3.33;3.03;;;9.80;99.90;;;;;;4973715;28;20439;-64
2022/11/14 10:48:22;;;;;;;3.93;3.20;;;9.80;99.90;;;;;;4973968;28;20478;-65
2022/11/14 10:51:28;;;;;;;3.33;2.73;;;10.00;99.90;;;;;;4978280;28;20440;-65
2022/11/14 10:54:09;;;;;;;6.07;4.50;;;10.20;99.90;;;;;;4981334;28;20438;-65
2022/11/14 10:56:44;;;;;;;4.27;3.23;;;10.30;99.90;;;;;;4976431;28;20461;-65
2022/11/14 10:59:10;;;;;;;3.20;2.63;;;10.40;99.90;;;;;;4973276;28;20533;-66
2022/11/14 11:01:37;;;;;;;3.30;3.00;;;10.90;99.90;;;;;;4973480;28;20879;-65
2022/11/14 11:04:20;;;;;;;3.80;2.33;;;11.50;99.90;;;;;;4968692;28;20270;-65
2022/11/14 11:06:47;;;;;;;4.03;2.63;;;11.60;99.90;;;;;;4986839;28;20482;-66
2022/11/14 11:12:17;;;;;;;2.20;2.10;;;11.90;99.90;;;;;;4975645;28;20617;-65
2022/11/14 11:14:48;;;;;;;2.70;2.50;;;13.00;99.90;;;;;;4970101;28;20475;-66
2022/11/14 11:17:14;;;;;;;2.53;1.90;;;13.50;99.90;;;;;;4971959;28;20546;-65
2022/11/14 11:19:41;;;;;;;2.57;2.37;;;13.20;99.90;;;;;;4990607;28;20431;-65
2022/11/14 11:22:29;;;;;;;2.77;2.57;;;12.70;99.90;;;;;;4971542;28;20471;-65
2022/11/14 11:24:55;;;;;;;3.20;2.90;;;12.20;99.90;;;;;;4973591;28;20455;-65
2022/11/14 11:27:25;;;;;;;3.30;3.00;;;11.80;99.90;;;;;;4973336;28;20550;-65
2022/11/14 11:30:04;;;;;;;2.73;2.53;;;11.50;99.90;;;;;;4956018;28;20360;-64
2022/11/14 11:32:30;;;;;;;3.20;2.90;;;11.30;99.90;;;;;;4957880;28;20431;-66
2022/11/14 11:34:57;;;;;;;2.60;2.40;;;11.20;99.90;;;;;;4964157;28;20435;-65
2022/11/14 11:37:29;;;;;;;2.50;2.30;;;11.00;99.90;;;;;;4954427;28;20954;-64
2022/11/14 11:39:59;;;;;;;3.13;2.93;;;11.00;99.90;;;;;;4965957;28;20463;-65
2022/11/14 11:42:29;;;;;;;3.33;3.03;;;10.90;99.90;;;;;;4970999;28;20801;-66
2022/11/14 11:44:59;;;;;;;3.10;2.33;;;10.80;99.90;;;;;;4972736;28;20518;-65
2022/11/14 11:47:28;;;;;;;2.03;1.90;;;10.70;99.90;;;;;;4973339;28;20450;-64
2022/11/14 11:49:53;;;;;;;2.03;1.83;;;10.70;99.90;;;;;;4973366;28;20794;-64
2022/11/14 11:52:38;;;;;;;2.53;2.30;;;10.60;99.90;;;;;;4970329;28;20428;-64
2022/11/14 11:55:15;;;;;;;2.27;2.07;;;10.60;99.90;;;;;;4972953;28;20195;-64
2022/11/14 11:57:46;;;;;;;2.80;2.60;;;10.50;99.90;;;;;;4970206;28;20495;-64
2022/11/14 12:00:19;;;;;;;2.40;2.20;;;10.50;99.90;;;;;;4964361;28;20435;-64
2022/11/14 12:02:48;;;;;;;2.80;2.60;;;10.50;99.90;;;;;;4963164;28;20439;-64
2022/11/14 12:05:34;;;;;;;1.97;1.80;;;10.50;99.90;;;;;;4968104;28;20635;-64
2022/11/14 12:08:16;;;;;;;2.60;2.37;;;10.50;99.90;;;;;;4961748;28;20444;-64
2022/11/14 12:10:43;;;;;;;3.03;2.13;;;10.50;99.90;;;;;;4963789;28;20415;-65
2022/11/14 12:13:40;;;;;;;2.60;2.27;;;10.60;99.90;;;;;;4962929;28;20518;-64
2022/11/14 12:16:30;;;;;;;2.60;2.40;;;10.60;99.90;;;;;;4963065;28;20424;-64
2022/11/14 12:19:30;;;;;;;5.10;2.57;;;10.70;99.90;;;;;;4961295;28;20785;-63
2022/11/14 12:22:25;;;;;;;2.57;2.37;;;10.80;99.90;;;;;;4959984;28;20432;-64
2022/11/14 12:25:18;;;;;;;2.47;2.13;;;10.90;99.90;;;;;;4962820;28;20467;-64
2022/11/14 12:28:10;;;;;;;2.27;2.00;;;11.10;99.90;;;;;;4963999;28;20987;-64
2022/11/14 12:30:39;;;;;;;3.53;2.03;;;11.60;99.90;;;;;;4960962;28;20480;-64
2022/11/14 12:33:31;;;;;;;3.20;2.23;;;13.40;99.90;;;;;;4961651;28;20988;-64
2022/11/14 12:36:00;;;;;;;3.30;2.67;;;15.80;99.90;;;;;;4953413;28;20432;-65
2022/11/14 12:38:31;;;;;;;3.37;3.07;;;17.90;99.90;;;;;;4966599;28;20602;-64
2022/11/14 12:40:59;;;;;;;2.83;2.60;;;17.80;99.90;;;;;;4973206;28;20411;-64
2022/11/14 12:43:27;;;;;;;2.60;2.40;;;16.70;99.90;;;;;;4963350;28;20977;-65
2022/11/14 12:45:56;;;;;;;3.90;2.50;;;15.90;99.90;;;;;;4972527;28;20482;-65
2022/11/14 12:48:25;;;;;;;2.57;2.37;;;16.40;99.90;;;;;;4972061;28;20916;-64
2022/11/14 12:50:55;;;;;;;2.50;2.30;;;16.00;99.90;;;;;;4972890;28;20451;-64
2022/11/14 12:53:36;;;;;;;3.77;3.30;;;15.00;99.90;;;;;;4969806;28;20437;-65